Terminal Aerodrome Forecast
Issued by NWS

Home | Current Version | Previous Version | Text Only | Print | Product List | Glossary On
Versions: 1 2 3 4 5 6 7 8 9 10 11 12 13 14 15 16 17 18 19 20 21 22 23 24 25 26 27 28 29 30 31 32 33
000
FTUS42 KRAH 012344 CCA
TAFRWI
TAF COR
KRWI 012344Z 0200/0224 16007KT P6SM BKN120
      TEMPO 0204/0208 18012G20KT 6SM -SHRA BKN007 OVC015
     FM020800 20012G18KT 3SM -SHRA BKN007 OVC012
      TEMPO 0213/0217 24015G25KT BKN012
     FM021700 28020G30KT P6SM BKN035=

USA.gov is the U.S. government's official web portal to all federal, state and local government web resources and services.